KSUA/SUA METAR and TAF weather

Enter ICAO airport designator
Station Type Date Time Source
KSUA METAR 2021/09/27 06:15 UTC NOAA

KSUA 270615Z AUTO 05003KT 10SM 25/17 A3007 RMK AO2


Station Type Date Time Source
KSUA Decoded METAR 2021/09/27 06:15 UTC NOAA

Stuart, Witham Field Airport, FL, United States (KSUA) 27-10-54N 080-13-16W
Sep 27, 2021 - 02:15 AM EDT / 2021.09.27 0615 UTC
Wind: from the NE (050 degrees) at 3 MPH (3 KT):0
Visibility: 10 mile(s):0
Temperature: 77 F (25 C)
Dew Point: 62 F (17 C)
Relative Humidity: 61%
Pressure (altimeter): 30.07 in. Hg (1018 hPa)
ob: KSUA 270615Z AUTO 05003KT 10SM 25/17 A3007 RMK AO2
cycle: 6

Station Type Date Time Source
KSUA TAF 2021/09/27 06:22 UTC NOAA

TAF KSUA 270520Z 2706/2806 05004KT P6SM SKC
FM271500 05012KT P6SM SCT030
FM280000 07006KT P6SM SKC
AMD NOT SKED

Example: see airport list